sensor_id;sensor_type;location;lat;lon;timestamp;P1;durP1;ratioP1;P2;durP2;ratioP2
71671;SDS011;62112;45.638;11.714;2022-10-16T00:01:18;21.42;;;16.05;;
71671;SDS011;62112;45.638;11.714;2022-10-16T00:03:46;20.48;;;15.48;;
71671;SDS011;62112;45.638;11.714;2022-10-16T00:06:13;21.58;;;15.98;;
71671;SDS011;62112;45.638;11.714;2022-10-16T00:08:40;20.80;;;15.20;;
71671;SDS011;62112;45.638;11.714;2022-10-16T00:11:09;21.20;;;14.87;;
71671;SDS011;62112;45.638;11.714;2022-10-16T00:13:37;19.90;;;14.98;;
71671;SDS011;62112;45.638;11.714;2022-10-16T00:16:05;20.42;;;15.13;;
71671;SDS011;62112;45.638;11.714;2022-10-16T00:18:32;20.90;;;15.13;;
71671;SDS011;62112;45.638;11.714;2022-10-16T00:21:05;20.85;;;15.15;;
71671;SDS011;62112;45.638;11.714;2022-10-16T00:23:32;22.03;;;15.33;;
71671;SDS011;62112;45.638;11.714;2022-10-16T00:26:00;22.92;;;15.95;;
71671;SDS011;62112;45.638;11.714;2022-10-16T00:28:27;23.30;;;16.90;;
71671;SDS011;62112;45.638;11.714;2022-10-16T00:30:54;22.50;;;16.48;;
71671;SDS011;62112;45.638;11.714;2022-10-16T00:33:20;22.60;;;16.08;;
71671;SDS011;62112;45.638;11.714;2022-10-16T00:35:46;22.67;;;16.77;;
71671;SDS011;62112;45.638;11.714;2022-10-16T00:38:12;22.02;;;15.95;;
71671;SDS011;62112;45.638;11.714;2022-10-16T00:40:38;23.27;;;17.00;;
71671;SDS011;62112;45.638;11.714;2022-10-16T00:46:20;22.38;;;16.58;;
71671;SDS011;62112;45.638;11.714;2022-10-16T00:49:15;21.73;;;15.63;;
71671;SDS011;62112;45.638;11.714;2022-10-16T00:51:45;22.23;;;16.05;;
71671;SDS011;62112;45.638;11.714;2022-10-16T00:54:16;21.65;;;16.02;;
71671;SDS011;62112;45.638;11.714;2022-10-16T00:56:45;20.42;;;15.60;;
71671;SDS011;62112;45.638;11.714;2022-10-16T00:59:19;22.00;;;16.38;;
71671;SDS011;62112;45.638;11.714;2022-10-16T01:01:52;21.63;;;16.27;;
71671;SDS011;62112;45.638;11.714;2022-10-16T01:04:18;20.23;;;15.15;;
71671;SDS011;62112;45.638;11.714;2022-10-16T01:12:06;20.13;;;15.23;;
71671;SDS011;62112;45.638;11.714;2022-10-16T01:17:24;20.70;;;15.52;;
71671;SDS011;62112;45.638;11.714;2022-10-16T01:23:10;21.67;;;16.00;;
71671;SDS011;62112;45.638;11.714;2022-10-16T01:28:22;20.47;;;15.10;;
71671;SDS011;62112;45.638;11.714;2022-10-16T01:30:53;21.15;;;15.82;;
71671;SDS011;62112;45.638;11.714;2022-10-16T01:33:26;21.95;;;16.23;;
71671;SDS011;62112;45.638;11.714;2022-10-16T01:36:02;22.65;;;15.82;;
71671;SDS011;62112;45.638;11.714;2022-10-16T01:38:34;21.67;;;15.60;;
71671;SDS011;62112;45.638;11.714;2022-10-16T01:44:01;20.75;;;15.25;;
71671;SDS011;62112;45.638;11.714;2022-10-16T01:46:33;19.88;;;15.02;;
71671;SDS011;62112;45.638;11.714;2022-10-16T01:49:01;20.85;;;15.07;;
71671;SDS011;62112;45.638;11.714;2022-10-16T01:51:28;21.73;;;15.43;;
71671;SDS011;62112;45.638;11.714;2022-10-16T01:53:55;20.87;;;15.27;;
71671;SDS011;62112;45.638;11.714;2022-10-16T01:56:24;21.42;;;14.90;;
71671;SDS011;62112;45.638;11.714;2022-10-16T01:58:55;22.27;;;15.25;;
71671;SDS011;62112;45.638;11.714;2022-10-16T02:01:24;22.15;;;15.32;;
71671;SDS011;62112;45.638;11.714;2022-10-16T02:03:54;20.90;;;15.40;;
71671;SDS011;62112;45.638;11.714;2022-10-16T02:06:24;23.30;;;16.37;;
71671;SDS011;62112;45.638;11.714;2022-10-16T02:08:50;22.25;;;16.15;;
71671;SDS011;62112;45.638;11.714;2022-10-16T02:11:16;22.50;;;16.55;;
71671;SDS011;62112;45.638;11.714;2022-10-16T02:13:44;27.05;;;18.58;;
71671;SDS011;62112;45.638;11.714;2022-10-16T02:16:13;26.27;;;19.17;;
71671;SDS011;62112;45.638;11.714;2022-10-16T02:18:40;25.52;;;17.38;;
71671;SDS011;62112;45.638;11.714;2022-10-16T02:21:26;23.23;;;16.85;;
71671;SDS011;62112;45.638;11.714;2022-10-16T02:26:33;21.25;;;15.52;;
71671;SDS011;62112;45.638;11.714;2022-10-16T02:29:06;22.30;;;16.03;;
71671;SDS011;62112;45.638;11.714;2022-10-16T02:31:35;24.60;;;16.92;;
71671;SDS011;62112;45.638;11.714;2022-10-16T02:34:06;24.52;;;16.45;;
71671;SDS011;62112;45.638;11.714;2022-10-16T02:36:33;22.90;;;16.48;;
71671;SDS011;62112;45.638;11.714;2022-10-16T02:39:01;22.73;;;16.52;;
71671;SDS011;62112;45.638;11.714;2022-10-16T02:41:30;24.53;;;16.77;;
71671;SDS011;62112;45.638;11.714;2022-10-16T02:43:56;23.98;;;17.00;;
71671;SDS011;62112;45.638;11.714;2022-10-16T02:46:22;22.05;;;16.00;;
71671;SDS011;62112;45.638;11.714;2022-10-16T02:48:47;22.27;;;16.43;;
71671;SDS011;62112;45.638;11.714;2022-10-16T02:51:13;23.00;;;16.30;;
71671;SDS011;62112;45.638;11.714;2022-10-16T02:53:39;21.90;;;16.20;;
71671;SDS011;62112;45.638;11.714;2022-10-16T02:56:05;22.30;;;16.07;;
71671;SDS011;62112;45.638;11.714;2022-10-16T02:58:31;23.90;;;16.83;;
71671;SDS011;62112;45.638;11.714;2022-10-16T03:00:57;22.58;;;16.42;;
71671;SDS011;62112;45.638;11.714;2022-10-16T03:03:22;22.20;;;16.17;;
71671;SDS011;62112;45.638;11.714;2022-10-16T03:05:48;21.75;;;15.77;;
71671;SDS011;62112;45.638;11.714;2022-10-16T03:08:14;23.38;;;16.48;;
71671;SDS011;62112;45.638;11.714;2022-10-16T03:10:40;22.70;;;15.70;;
71671;SDS011;62112;45.638;11.714;2022-10-16T03:13:06;21.67;;;16.23;;
71671;SDS011;62112;45.638;11.714;2022-10-16T03:15:32;23.70;;;16.73;;
71671;SDS011;62112;45.638;11.714;2022-10-16T03:17:58;22.23;;;16.10;;
71671;SDS011;62112;45.638;11.714;2022-10-16T03:20:24;21.85;;;15.27;;
71671;SDS011;62112;45.638;11.714;2022-10-16T03:22:50;21.50;;;15.77;;
71671;SDS011;62112;45.638;11.714;2022-10-16T03:25:16;21.40;;;16.00;;
71671;SDS011;62112;45.638;11.714;2022-10-16T03:27:42;21.87;;;16.27;;
71671;SDS011;62112;45.638;11.714;2022-10-16T03:30:08;22.05;;;16.00;;
71671;SDS011;62112;45.638;11.714;2022-10-16T03:32:34;22.50;;;16.20;;
71671;SDS011;62112;45.638;11.714;2022-10-16T03:35:00;22.30;;;16.10;;
71671;SDS011;62112;45.638;11.714;2022-10-16T03:37:26;21.90;;;15.85;;
71671;SDS011;62112;45.638;11.714;2022-10-16T03:39:52;25.25;;;16.45;;
71671;SDS011;62112;45.638;11.714;2022-10-16T03:42:18;20.87;;;15.53;;
71671;SDS011;62112;45.638;11.714;2022-10-16T03:44:43;21.05;;;15.40;;
71671;SDS011;62112;45.638;11.714;2022-10-16T03:47:09;22.17;;;16.50;;
71671;SDS011;62112;45.638;11.714;2022-10-16T03:49:35;25.10;;;16.97;;
71671;SDS011;62112;45.638;11.714;2022-10-16T03:52:01;23.60;;;16.05;;
71671;SDS011;62112;45.638;11.714;2022-10-16T03:54:27;21.58;;;16.27;;
71671;SDS011;62112;45.638;11.714;2022-10-16T03:56:52;21.93;;;16.13;;
71671;SDS011;62112;45.638;11.714;2022-10-16T03:59:18;21.88;;;16.00;;
71671;SDS011;62112;45.638;11.714;2022-10-16T04:01:44;21.60;;;15.80;;
71671;SDS011;62112;45.638;11.714;2022-10-16T04:04:10;22.05;;;16.13;;
71671;SDS011;62112;45.638;11.714;2022-10-16T04:06:35;22.42;;;15.73;;
71671;SDS011;62112;45.638;11.714;2022-10-16T04:09:01;22.90;;;16.63;;
71671;SDS011;62112;45.638;11.714;2022-10-16T04:11:27;21.33;;;15.88;;
71671;SDS011;62112;45.638;11.714;2022-10-16T04:13:53;21.50;;;15.70;;
71671;SDS011;62112;45.638;11.714;2022-10-16T04:16:19;21.73;;;15.93;;
71671;SDS011;62112;45.638;11.714;2022-10-16T04:18:45;21.88;;;16.23;;
71671;SDS011;62112;45.638;11.714;2022-10-16T04:21:11;22.52;;;16.52;;
71671;SDS011;62112;45.638;11.714;2022-10-16T04:23:37;21.48;;;15.98;;
71671;SDS011;62112;45.638;11.714;2022-10-16T04:26:02;25.13;;;16.90;;
71671;SDS011;62112;45.638;11.714;2022-10-16T04:28:28;22.15;;;15.93;;
71671;SDS011;62112;45.638;11.714;2022-10-16T04:30:54;21.90;;;16.10;;
71671;SDS011;62112;45.638;11.714;2022-10-16T04:33:20;23.57;;;16.47;;
71671;SDS011;62112;45.638;11.714;2022-10-16T04:35:46;21.90;;;16.52;;
71671;SDS011;62112;45.638;11.714;2022-10-16T04:38:12;23.07;;;15.77;;
71671;SDS011;62112;45.638;11.714;2022-10-16T04:40:38;23.17;;;16.20;;
71671;SDS011;62112;45.638;11.714;2022-10-16T04:43:04;23.40;;;16.88;;
71671;SDS011;62112;45.638;11.714;2022-10-16T04:45:31;22.30;;;15.93;;
71671;SDS011;62112;45.638;11.714;2022-10-16T04:47:57;22.13;;;16.07;;
71671;SDS011;62112;45.638;11.714;2022-10-16T04:50:24;22.08;;;16.35;;
71671;SDS011;62112;45.638;11.714;2022-10-16T04:52:50;21.90;;;15.70;;
71671;SDS011;62112;45.638;11.714;2022-10-16T04:55:16;22.60;;;16.27;;
71671;SDS011;62112;45.638;11.714;2022-10-16T04:57:42;21.93;;;16.50;;
71671;SDS011;62112;45.638;11.714;2022-10-16T05:00:07;22.00;;;16.27;;
71671;SDS011;62112;45.638;11.714;2022-10-16T05:02:34;21.45;;;16.05;;
71671;SDS011;62112;45.638;11.714;2022-10-16T05:04:59;22.67;;;16.80;;
71671;SDS011;62112;45.638;11.714;2022-10-16T05:07:25;22.00;;;15.90;;
71671;SDS011;62112;45.638;11.714;2022-10-16T05:09:51;22.83;;;16.37;;
71671;SDS011;62112;45.638;11.714;2022-10-16T05:12:17;23.15;;;16.17;;
71671;SDS011;62112;45.638;11.714;2022-10-16T05:14:43;22.10;;;15.85;;
71671;SDS011;62112;45.638;11.714;2022-10-16T05:17:09;22.00;;;15.77;;
71671;SDS011;62112;45.638;11.714;2022-10-16T05:19:35;22.70;;;15.88;;
71671;SDS011;62112;45.638;11.714;2022-10-16T05:22:00;21.63;;;15.60;;
71671;SDS011;62112;45.638;11.714;2022-10-16T05:24:26;21.67;;;15.87;;
71671;SDS011;62112;45.638;11.714;2022-10-16T05:26:52;20.45;;;15.15;;
71671;SDS011;62112;45.638;11.714;2022-10-16T05:29:19;20.48;;;15.75;;
71671;SDS011;62112;45.638;11.714;2022-10-16T05:31:45;21.20;;;15.40;;
71671;SDS011;62112;45.638;11.714;2022-10-16T05:34:11;20.63;;;15.67;;
71671;SDS011;62112;45.638;11.714;2022-10-16T05:36:36;21.58;;;15.50;;
71671;SDS011;62112;45.638;11.714;2022-10-16T05:39:02;21.75;;;15.63;;
71671;SDS011;62112;45.638;11.714;2022-10-16T05:41:28;23.23;;;15.93;;
71671;SDS011;62112;45.638;11.714;2022-10-16T05:43:54;19.77;;;14.60;;
71671;SDS011;62112;45.638;11.714;2022-10-16T05:46:20;20.27;;;15.25;;
71671;SDS011;62112;45.638;11.714;2022-10-16T05:48:46;20.93;;;15.90;;
71671;SDS011;62112;45.638;11.714;2022-10-16T05:51:12;21.70;;;15.47;;
71671;SDS011;62112;45.638;11.714;2022-10-16T05:53:39;21.95;;;15.57;;
71671;SDS011;62112;45.638;11.714;2022-10-16T05:56:06;21.35;;;15.32;;
71671;SDS011;62112;45.638;11.714;2022-10-16T05:58:35;21.45;;;15.60;;
71671;SDS011;62112;45.638;11.714;2022-10-16T06:01:03;20.37;;;15.00;;
71671;SDS011;62112;45.638;11.714;2022-10-16T06:03:32;20.75;;;14.82;;
71671;SDS011;62112;45.638;11.714;2022-10-16T06:05:58;22.88;;;16.33;;
71671;SDS011;62112;45.638;11.714;2022-10-16T06:08:24;20.88;;;15.30;;
71671;SDS011;62112;45.638;11.714;2022-10-16T06:11:09;22.33;;;15.57;;
71671;SDS011;62112;45.638;11.714;2022-10-16T06:13:39;22.25;;;15.10;;
71671;SDS011;62112;45.638;11.714;2022-10-16T06:16:07;21.08;;;15.00;;
71671;SDS011;62112;45.638;11.714;2022-10-16T06:18:33;22.10;;;16.10;;
71671;SDS011;62112;45.638;11.714;2022-10-16T06:20:59;23.50;;;15.00;;
71671;SDS011;62112;45.638;11.714;2022-10-16T06:23:31;22.25;;;15.85;;
71671;SDS011;62112;45.638;11.714;2022-10-16T06:26:03;21.65;;;15.85;;
71671;SDS011;62112;45.638;11.714;2022-10-16T06:28:37;21.23;;;15.35;;
71671;SDS011;62112;45.638;11.714;2022-10-16T06:31:04;20.90;;;15.27;;
71671;SDS011;62112;45.638;11.714;2022-10-16T06:33:31;21.58;;;16.00;;
71671;SDS011;62112;45.638;11.714;2022-10-16T06:36:00;21.17;;;15.85;;
71671;SDS011;62112;45.638;11.714;2022-10-16T06:38:31;21.38;;;15.43;;
71671;SDS011;62112;45.638;11.714;2022-10-16T06:40:57;20.35;;;15.15;;
71671;SDS011;62112;45.638;11.714;2022-10-16T06:43:23;21.87;;;16.17;;
71671;SDS011;62112;45.638;11.714;2022-10-16T06:45:52;20.23;;;15.25;;
71671;SDS011;62112;45.638;11.714;2022-10-16T06:48:21;21.02;;;15.43;;
71671;SDS011;62112;45.638;11.714;2022-10-16T06:51:00;22.02;;;15.52;;
71671;SDS011;62112;45.638;11.714;2022-10-16T06:53:29;20.13;;;15.23;;
71671;SDS011;62112;45.638;11.714;2022-10-16T06:55:56;20.00;;;15.00;;
71671;SDS011;62112;45.638;11.714;2022-10-16T06:58:23;21.10;;;15.48;;
71671;SDS011;62112;45.638;11.714;2022-10-16T07:00:55;22.15;;;16.13;;
71671;SDS011;62112;45.638;11.714;2022-10-16T07:03:22;20.63;;;15.18;;
71671;SDS011;62112;45.638;11.714;2022-10-16T07:05:47;22.77;;;16.17;;
71671;SDS011;62112;45.638;11.714;2022-10-16T07:08:13;21.55;;;15.93;;
71671;SDS011;62112;45.638;11.714;2022-10-16T07:10:39;21.63;;;15.27;;
71671;SDS011;62112;45.638;11.714;2022-10-16T07:13:05;21.77;;;16.03;;
71671;SDS011;62112;45.638;11.714;2022-10-16T07:15:32;23.20;;;16.75;;
71671;SDS011;62112;45.638;11.714;2022-10-16T07:17:59;22.75;;;16.13;;
71671;SDS011;62112;45.638;11.714;2022-10-16T07:20:25;22.15;;;16.13;;
71671;SDS011;62112;45.638;11.714;2022-10-16T07:22:51;23.20;;;15.57;;
71671;SDS011;62112;45.638;11.714;2022-10-16T07:25:17;22.70;;;15.60;;
71671;SDS011;62112;45.638;11.714;2022-10-16T07:27:44;22.83;;;15.98;;
71671;SDS011;62112;45.638;11.714;2022-10-16T07:30:09;23.37;;;15.43;;
71671;SDS011;62112;45.638;11.714;2022-10-16T07:32:35;21.73;;;15.65;;
71671;SDS011;62112;45.638;11.714;2022-10-16T07:35:01;21.05;;;15.20;;
71671;SDS011;62112;45.638;11.714;2022-10-16T07:37:27;23.27;;;15.02;;
71671;SDS011;62112;45.638;11.714;2022-10-16T07:39:53;23.90;;;15.93;;
71671;SDS011;62112;45.638;11.714;2022-10-16T07:42:19;21.83;;;14.98;;
71671;SDS011;62112;45.638;11.714;2022-10-16T07:44:45;20.80;;;14.45;;
71671;SDS011;62112;45.638;11.714;2022-10-16T07:47:11;19.63;;;15.07;;
71671;SDS011;62112;45.638;11.714;2022-10-16T07:49:36;20.75;;;15.10;;
71671;SDS011;62112;45.638;11.714;2022-10-16T07:52:02;24.20;;;15.03;;
71671;SDS011;62112;45.638;11.714;2022-10-16T07:54:30;21.13;;;14.57;;
71671;SDS011;62112;45.638;11.714;2022-10-16T07:56:56;21.38;;;14.65;;
71671;SDS011;62112;45.638;11.714;2022-10-16T07:59:22;20.20;;;14.52;;
71671;SDS011;62112;45.638;11.714;2022-10-16T08:01:48;19.93;;;14.23;;
71671;SDS011;62112;45.638;11.714;2022-10-16T08:04:15;21.58;;;15.07;;
71671;SDS011;62112;45.638;11.714;2022-10-16T08:06:42;21.40;;;15.35;;
71671;SDS011;62112;45.638;11.714;2022-10-16T08:09:08;19.88;;;14.73;;
71671;SDS011;62112;45.638;11.714;2022-10-16T08:11:35;19.17;;;14.07;;
71671;SDS011;62112;45.638;11.714;2022-10-16T08:14:01;20.52;;;14.75;;
71671;SDS011;62112;45.638;11.714;2022-10-16T08:16:29;20.55;;;15.60;;
71671;SDS011;62112;45.638;11.714;2022-10-16T08:18:55;20.48;;;14.43;;
71671;SDS011;62112;45.638;11.714;2022-10-16T08:21:22;20.17;;;14.37;;
71671;SDS011;62112;45.638;11.714;2022-10-16T08:23:50;20.83;;;14.23;;
71671;SDS011;62112;45.638;11.714;2022-10-16T08:26:18;20.13;;;14.15;;
71671;SDS011;62112;45.638;11.714;2022-10-16T08:28:44;20.13;;;14.48;;
71671;SDS011;62112;45.638;11.714;2022-10-16T08:31:14;20.35;;;14.73;;
71671;SDS011;62112;45.638;11.714;2022-10-16T08:33:41;18.63;;;13.87;;
71671;SDS011;62112;45.638;11.714;2022-10-16T08:36:08;19.63;;;14.27;;
71671;SDS011;62112;45.638;11.714;2022-10-16T08:38:35;18.55;;;14.43;;
71671;SDS011;62112;45.638;11.714;2022-10-16T08:41:17;20.83;;;14.55;;
71671;SDS011;62112;45.638;11.714;2022-10-16T08:44:19;19.75;;;14.40;;
71671;SDS011;62112;45.638;11.714;2022-10-16T08:47:21;20.20;;;14.43;;
71671;SDS011;62112;45.638;11.714;2022-10-16T08:50:10;20.27;;;14.63;;
71671;SDS011;62112;45.638;11.714;2022-10-16T08:52:39;20.58;;;14.80;;
71671;SDS011;62112;45.638;11.714;2022-10-16T08:55:16;19.70;;;14.27;;
71671;SDS011;62112;45.638;11.714;2022-10-16T08:57:57;20.55;;;14.57;;
71671;SDS011;62112;45.638;11.714;2022-10-16T09:00:24;19.93;;;14.70;;
71671;SDS011;62112;45.638;11.714;2022-10-16T09:05:57;20.15;;;14.57;;
71671;SDS011;62112;45.638;11.714;2022-10-16T09:08:51;19.30;;;14.55;;
71671;SDS011;62112;45.638;11.714;2022-10-16T09:14:40;20.80;;;14.07;;
71671;SDS011;62112;45.638;11.714;2022-10-16T09:17:30;20.88;;;15.20;;
71671;SDS011;62112;45.638;11.714;2022-10-16T09:22:48;21.48;;;15.80;;
71671;SDS011;62112;45.638;11.714;2022-10-16T09:25:15;26.63;;;16.13;;
71671;SDS011;62112;45.638;11.714;2022-10-16T09:27:47;21.15;;;14.98;;
71671;SDS011;62112;45.638;11.714;2022-10-16T09:30:15;21.73;;;15.52;;
71671;SDS011;62112;45.638;11.714;2022-10-16T09:32:43;22.77;;;15.13;;
71671;SDS011;62112;45.638;11.714;2022-10-16T09:35:15;24.30;;;16.10;;
71671;SDS011;62112;45.638;11.714;2022-10-16T09:37:47;21.20;;;15.30;;
71671;SDS011;62112;45.638;11.714;2022-10-16T09:40:26;21.65;;;15.88;;
71671;SDS011;62112;45.638;11.714;2022-10-16T09:43:01;23.60;;;16.40;;
71671;SDS011;62112;45.638;11.714;2022-10-16T09:46:04;23.00;;;16.42;;
71671;SDS011;62112;45.638;11.714;2022-10-16T09:48:49;22.95;;;16.65;;
71671;SDS011;62112;45.638;11.714;2022-10-16T09:51:20;25.37;;;16.80;;
71671;SDS011;62112;45.638;11.714;2022-10-16T09:53:56;24.42;;;16.88;;
71671;SDS011;62112;45.638;11.714;2022-10-16T09:56:28;26.73;;;17.85;;
71671;SDS011;62112;45.638;11.714;2022-10-16T09:58:56;24.73;;;17.42;;
71671;SDS011;62112;45.638;11.714;2022-10-16T10:01:26;26.25;;;16.98;;
71671;SDS011;62112;45.638;11.714;2022-10-16T10:03:56;26.00;;;17.93;;
71671;SDS011;62112;45.638;11.714;2022-10-16T10:06:31;27.40;;;18.23;;
71671;SDS011;62112;45.638;11.714;2022-10-16T10:09:06;27.05;;;18.35;;
71671;SDS011;62112;45.638;11.714;2022-10-16T10:11:54;28.60;;;19.08;;
71671;SDS011;62112;45.638;11.714;2022-10-16T10:19:37;27.17;;;18.52;;
71671;SDS011;62112;45.638;11.714;2022-10-16T10:22:15;29.83;;;19.20;;
71671;SDS011;62112;45.638;11.714;2022-10-16T10:27:39;25.43;;;18.83;;
71671;SDS011;62112;45.638;11.714;2022-10-16T10:30:40;29.73;;;19.60;;
71671;SDS011;62112;45.638;11.714;2022-10-16T10:38:30;29.77;;;20.40;;
71671;SDS011;62112;45.638;11.714;2022-10-16T10:41:33;29.00;;;20.57;;
71671;SDS011;62112;45.638;11.714;2022-10-16T10:47:02;28.45;;;20.27;;
71671;SDS011;62112;45.638;11.714;2022-10-16T10:52:26;30.05;;;20.75;;
71671;SDS011;62112;45.638;11.714;2022-10-16T11:00:42;27.67;;;19.52;;
71671;SDS011;62112;45.638;11.714;2022-10-16T11:03:32;29.67;;;19.60;;
71671;SDS011;62112;45.638;11.714;2022-10-16T11:06:24;28.23;;;19.50;;
71671;SDS011;62112;45.638;11.714;2022-10-16T11:11:44;27.02;;;18.70;;
71671;SDS011;62112;45.638;11.714;2022-10-16T11:19:35;27.13;;;19.10;;
71671;SDS011;62112;45.638;11.714;2022-10-16T11:22:17;27.60;;;19.07;;
71671;SDS011;62112;45.638;11.714;2022-10-16T11:30:44;26.83;;;19.40;;
71671;SDS011;62112;45.638;11.714;2022-10-16T11:33:36;28.50;;;19.30;;
71671;SDS011;62112;45.638;11.714;2022-10-16T11:41:52;26.52;;;18.23;;
71671;SDS011;62112;45.638;11.714;2022-10-16T11:44:34;26.58;;;18.95;;
71671;SDS011;62112;45.638;11.714;2022-10-16T11:50:13;25.77;;;17.80;;
71671;SDS011;62112;45.638;11.714;2022-10-16T11:55:42;24.40;;;17.85;;
71671;SDS011;62112;45.638;11.714;2022-10-16T11:58:22;27.70;;;18.60;;
71671;SDS011;62112;45.638;11.714;2022-10-16T12:01:14;27.05;;;18.38;;
71671;SDS011;62112;45.638;11.714;2022-10-16T12:03:46;26.67;;;18.10;;
71671;SDS011;62112;45.638;11.714;2022-10-16T12:06:30;24.38;;;17.55;;
71671;SDS011;62112;45.638;11.714;2022-10-16T12:09:09;26.45;;;18.13;;
71671;SDS011;62112;45.638;11.714;2022-10-16T12:11:49;27.27;;;18.40;;
71671;SDS011;62112;45.638;11.714;2022-10-16T12:17:03;25.50;;;17.40;;
71671;SDS011;62112;45.638;11.714;2022-10-16T12:23:21;25.15;;;17.17;;
71671;SDS011;62112;45.638;11.714;2022-10-16T12:25:33;25.13;;;17.55;;
71671;SDS011;62112;45.638;11.714;2022-10-16T12:30:40;25.37;;;17.87;;
71671;SDS011;62112;45.638;11.714;2022-10-16T12:33:56;24.42;;;16.85;;
71671;SDS011;62112;45.638;11.714;2022-10-16T12:36:32;24.50;;;16.70;;
71671;SDS011;62112;45.638;11.714;2022-10-16T12:39:00;23.02;;;16.67;;
71671;SDS011;62112;45.638;11.714;2022-10-16T12:43:55;23.17;;;16.07;;
71671;SDS011;62112;45.638;11.714;2022-10-16T12:46:24;23.67;;;17.08;;
71671;SDS011;62112;45.638;11.714;2022-10-16T12:51:39;23.30;;;16.85;;
71671;SDS011;62112;45.638;11.714;2022-10-16T12:59:53;22.77;;;16.27;;
71671;SDS011;62112;45.638;11.714;2022-10-16T13:11:03;19.33;;;13.53;;
71671;SDS011;62112;45.638;11.714;2022-10-16T13:16:31;19.77;;;14.05;;
71671;SDS011;62112;45.638;11.714;2022-10-16T13:21:49;19.50;;;13.77;;
71671;SDS011;62112;45.638;11.714;2022-10-16T13:30:26;18.88;;;13.75;;
71671;SDS011;62112;45.638;11.714;2022-10-16T13:35:28;20.45;;;14.23;;
71671;SDS011;62112;45.638;11.714;2022-10-16T13:41:04;20.27;;;14.13;;
71671;SDS011;62112;45.638;11.714;2022-10-16T13:43:38;19.20;;;13.85;;
71671;SDS011;62112;45.638;11.714;2022-10-16T13:46:14;20.95;;;14.15;;
71671;SDS011;62112;45.638;11.714;2022-10-16T13:48:41;20.08;;;13.93;;
71671;SDS011;62112;45.638;11.714;2022-10-16T13:51:15;18.73;;;14.07;;
71671;SDS011;62112;45.638;11.714;2022-10-16T13:53:42;20.35;;;14.48;;
71671;SDS011;62112;45.638;11.714;2022-10-16T13:56:10;17.67;;;13.38;;
71671;SDS011;62112;45.638;11.714;2022-10-16T13:58:41;21.48;;;14.55;;
71671;SDS011;62112;45.638;11.714;2022-10-16T14:04:10;19.27;;;13.93;;
71671;SDS011;62112;45.638;11.714;2022-10-16T14:06:40;19.73;;;13.85;;
71671;SDS011;62112;45.638;11.714;2022-10-16T14:09:08;19.33;;;13.95;;
71671;SDS011;62112;45.638;11.714;2022-10-16T14:11:45;20.25;;;14.88;;
71671;SDS011;62112;45.638;11.714;2022-10-16T14:14:21;19.58;;;14.00;;
71671;SDS011;62112;45.638;11.714;2022-10-16T14:16:48;19.10;;;14.30;;
71671;SDS011;62112;45.638;11.714;2022-10-16T14:19:27;20.45;;;14.82;;
71671;SDS011;62112;45.638;11.714;2022-10-16T14:21:54;19.50;;;14.75;;
71671;SDS011;62112;45.638;11.714;2022-10-16T14:24:25;20.17;;;15.00;;
71671;SDS011;62112;45.638;11.714;2022-10-16T14:26:52;20.13;;;15.13;;
71671;SDS011;62112;45.638;11.714;2022-10-16T14:29:21;22.00;;;15.83;;
71671;SDS011;62112;45.638;11.714;2022-10-16T14:31:57;20.65;;;15.38;;
71671;SDS011;62112;45.638;11.714;2022-10-16T14:34:27;22.75;;;15.70;;
71671;SDS011;62112;45.638;11.714;2022-10-16T14:36:57;21.58;;;15.00;;
71671;SDS011;62112;45.638;11.714;2022-10-16T14:39:27;22.70;;;15.15;;
71671;SDS011;62112;45.638;11.714;2022-10-16T14:41:55;20.50;;;15.40;;
71671;SDS011;62112;45.638;11.714;2022-10-16T14:44:24;21.80;;;15.32;;
71671;SDS011;62112;45.638;11.714;2022-10-16T14:46:54;20.67;;;14.85;;
71671;SDS011;62112;45.638;11.714;2022-10-16T14:49:20;20.00;;;15.15;;
71671;SDS011;62112;45.638;11.714;2022-10-16T14:51:48;20.73;;;15.52;;
71671;SDS011;62112;45.638;11.714;2022-10-16T14:54:16;20.80;;;15.47;;
71671;SDS011;62112;45.638;11.714;2022-10-16T15:01:56;20.15;;;15.02;;
71671;SDS011;62112;45.638;11.714;2022-10-16T15:04:21;21.80;;;15.63;;
71671;SDS011;62112;45.638;11.714;2022-10-16T15:06:47;19.58;;;14.45;;
71671;SDS011;62112;45.638;11.714;2022-10-16T15:09:13;20.92;;;15.10;;
71671;SDS011;62112;45.638;11.714;2022-10-16T15:11:39;21.73;;;15.53;;
71671;SDS011;62112;45.638;11.714;2022-10-16T15:14:08;21.88;;;16.10;;
71671;SDS011;62112;45.638;11.714;2022-10-16T15:16:36;22.90;;;16.08;;
71671;SDS011;62112;45.638;11.714;2022-10-16T15:19:02;21.90;;;16.20;;
71671;SDS011;62112;45.638;11.714;2022-10-16T15:21:29;21.20;;;15.87;;
71671;SDS011;62112;45.638;11.714;2022-10-16T15:23:57;22.95;;;16.08;;
71671;SDS011;62112;45.638;11.714;2022-10-16T15:26:25;21.55;;;16.35;;
71671;SDS011;62112;45.638;11.714;2022-10-16T15:28:52;22.13;;;16.42;;
71671;SDS011;62112;45.638;11.714;2022-10-16T15:31:18;22.13;;;16.20;;
71671;SDS011;62112;45.638;11.714;2022-10-16T15:33:44;20.83;;;16.20;;
71671;SDS011;62112;45.638;11.714;2022-10-16T15:36:12;22.15;;;16.23;;
71671;SDS011;62112;45.638;11.714;2022-10-16T15:38:38;22.05;;;16.42;;
71671;SDS011;62112;45.638;11.714;2022-10-16T15:41:04;22.77;;;16.47;;
71671;SDS011;62112;45.638;11.714;2022-10-16T15:43:30;23.20;;;16.40;;
71671;SDS011;62112;45.638;11.714;2022-10-16T15:46:02;22.42;;;16.20;;
71671;SDS011;62112;45.638;11.714;2022-10-16T15:48:31;21.83;;;16.13;;
71671;SDS011;62112;45.638;11.714;2022-10-16T15:50:58;21.70;;;16.48;;
71671;SDS011;62112;45.638;11.714;2022-10-16T15:53:24;21.77;;;16.10;;
71671;SDS011;62112;45.638;11.714;2022-10-16T15:55:50;22.00;;;16.17;;
71671;SDS011;62112;45.638;11.714;2022-10-16T15:58:16;22.03;;;15.90;;
71671;SDS011;62112;45.638;11.714;2022-10-16T16:00:42;21.73;;;16.17;;
71671;SDS011;62112;45.638;11.714;2022-10-16T16:03:08;19.92;;;15.48;;
71671;SDS011;62112;45.638;11.714;2022-10-16T16:05:37;23.50;;;15.87;;
71671;SDS011;62112;45.638;11.714;2022-10-16T16:08:11;21.60;;;15.85;;
71671;SDS011;62112;45.638;11.714;2022-10-16T16:10:44;23.20;;;16.13;;
71671;SDS011;62112;45.638;11.714;2022-10-16T16:13:10;21.30;;;15.25;;
71671;SDS011;62112;45.638;11.714;2022-10-16T16:15:38;19.60;;;14.87;;
71671;SDS011;62112;45.638;11.714;2022-10-16T16:18:05;20.65;;;15.48;;
71671;SDS011;62112;45.638;11.714;2022-10-16T16:20:32;21.35;;;16.00;;
71671;SDS011;62112;45.638;11.714;2022-10-16T16:22:58;22.27;;;16.27;;
71671;SDS011;62112;45.638;11.714;2022-10-16T16:25:23;21.10;;;15.70;;
71671;SDS011;62112;45.638;11.714;2022-10-16T16:27:49;21.55;;;15.52;;
71671;SDS011;62112;45.638;11.714;2022-10-16T16:30:15;21.83;;;15.60;;
71671;SDS011;62112;45.638;11.714;2022-10-16T16:32:43;20.73;;;15.60;;
71671;SDS011;62112;45.638;11.714;2022-10-16T16:35:09;22.98;;;15.88;;
71671;SDS011;62112;45.638;11.714;2022-10-16T16:37:35;20.88;;;15.85;;
71671;SDS011;62112;45.638;11.714;2022-10-16T16:40:01;22.33;;;15.83;;